createdAt,value
2019-03-25T00:01:26.473Z,5.05
2019-03-25T00:03:54.914Z,5.30
2019-03-25T00:06:23.415Z,3.10
2019-03-25T00:09:04.517Z,4.40
2019-03-25T00:11:22.016Z,4.08
2019-03-25T00:13:50.452Z,4.70
2019-03-25T00:16:18.886Z,4.80
2019-03-25T00:18:47.363Z,3.92
2019-03-25T00:21:15.858Z,3.95
2019-03-25T00:23:44.295Z,3.72
2019-03-25T00:26:12.710Z,2.72
2019-03-25T00:28:41.140Z,3.08
2019-03-25T00:31:09.584Z,4.03
2019-03-25T00:33:38.004Z,3.22
2019-03-25T00:36:06.427Z,4.17
2019-03-25T00:38:34.953Z,5.03
2019-03-25T00:41:03.431Z,3.37
2019-03-25T00:43:31.828Z,3.85
2019-03-25T00:46:00.236Z,3.37
2019-03-25T00:48:28.684Z,4.15
2019-03-25T00:50:57.110Z,4.62
2019-03-25T00:53:25.564Z,3.05
2019-03-25T00:55:53.988Z,3.95
2019-03-25T00:58:22.397Z,5.50
2019-03-25T01:00:50.896Z,3.80
2019-03-25T01:03:19.348Z,4.33
2019-03-25T01:05:47.757Z,2.80
2019-03-25T01:08:16.173Z,3.37
2019-03-25T01:10:44.603Z,4.75
2019-03-25T01:13:13.012Z,2.35
2019-03-25T01:15:41.437Z,4.75
2019-03-25T01:18:16.887Z,3.80
2019-03-25T01:20:40.009Z,3.60
2019-03-25T01:23:08.432Z,4.55
2019-03-25T01:25:36.871Z,3.37
2019-03-25T01:28:05.369Z,2.62
2019-03-25T01:30:33.799Z,2.23
2019-03-25T01:33:02.217Z,2.53
2019-03-25T01:35:30.644Z,3.50
2019-03-25T01:37:59.057Z,3.37
2019-03-25T01:40:27.492Z,3.23
2019-03-25T01:42:55.896Z,3.15
2019-03-25T01:45:24.323Z,3.40
2019-03-25T01:47:52.740Z,3.57
2019-03-25T01:50:21.163Z,3.33
2019-03-25T01:52:49.569Z,3.75
2019-03-25T01:55:18.010Z,3.02
2019-03-25T01:57:46.423Z,2.97
2019-03-25T02:00:16.553Z,2.80
2019-03-25T02:02:45.157Z,3.90
2019-03-25T02:05:13.866Z,3.77
2019-03-25T02:07:42.449Z,3.30
2019-03-25T02:10:11.306Z,3.27
2019-03-25T02:12:39.752Z,3.77
2019-03-25T02:15:08.813Z,3.50
2019-03-25T02:17:37.222Z,2.93
2019-03-25T02:20:06.810Z,3.05
2019-03-25T02:22:35.296Z,2.23
2019-03-25T02:25:05.863Z,3.10
2019-03-25T02:27:34.306Z,2.65
2019-03-25T02:30:03.268Z,3.37
2019-03-25T02:32:31.703Z,2.50
2019-03-25T02:35:00.145Z,3.67
2019-03-25T02:37:28.563Z,2.72
2019-03-25T02:39:57.000Z,2.93
2019-03-25T02:42:25.437Z,2.90
2019-03-25T02:44:53.850Z,3.10
2019-03-25T02:47:24.299Z,3.77
2019-03-25T02:49:52.429Z,2.98
2019-03-25T02:52:20.862Z,3.45
2019-03-25T02:54:49.268Z,2.67
2019-03-25T02:57:17.693Z,2.77
2019-03-25T02:59:46.120Z,3.50
2019-03-25T03:02:14.523Z,2.10
2019-03-25T03:04:42.966Z,2.63
2019-03-25T03:07:11.390Z,2.30
2019-03-25T03:09:39.808Z,3.45
2019-03-25T03:12:08.233Z,2.50
2019-03-25T03:14:36.649Z,3.70
2019-03-25T03:17:05.119Z,3.47
2019-03-25T03:19:33.544Z,2.93
2019-03-25T03:22:01.981Z,3.42
2019-03-25T03:24:30.423Z,4.73
2019-03-25T03:26:58.828Z,3.12
2019-03-25T03:29:27.258Z,3.17
2019-03-25T03:31:55.695Z,2.43
2019-03-25T03:34:24.115Z,2.77
2019-03-25T03:36:52.549Z,2.80
2019-03-25T03:39:21.014Z,3.10
2019-03-25T03:41:49.405Z,3.70
2019-03-25T03:44:17.818Z,2.92
2019-03-25T03:46:46.258Z,3.42
2019-03-25T03:49:14.677Z,2.30
2019-03-25T03:51:43.186Z,3.25
2019-03-25T03:54:11.672Z,3.20
2019-03-25T03:56:40.177Z,3.05
2019-03-25T03:59:08.760Z,2.27
2019-03-25T04:01:37.205Z,2.42
2019-03-25T04:04:05.629Z,2.35
2019-03-25T04:06:34.069Z,3.60
2019-03-25T04:09:02.576Z,2.52
2019-03-25T04:11:30.997Z,2.58
2019-03-25T04:13:59.429Z,2.10
2019-03-25T04:16:27.835Z,3.35
2019-03-25T04:18:56.290Z,2.45
2019-03-25T04:21:24.708Z,3.07
2019-03-25T04:23:53.520Z,2.77
2019-03-25T04:26:28.419Z,2.58
2019-03-25T04:28:52.096Z,1.95
2019-03-25T04:31:20.493Z,2.55
2019-03-25T04:33:48.966Z,3.00
2019-03-25T04:36:17.430Z,2.25
2019-03-25T04:38:45.883Z,3.05
2019-03-25T04:41:14.296Z,2.92
2019-03-25T04:43:42.717Z,3.77
2019-03-25T04:46:11.122Z,4.00
2019-03-25T04:48:39.554Z,2.22
2019-03-25T04:51:08.413Z,3.17
2019-03-25T04:53:36.923Z,2.03
2019-03-25T04:56:05.398Z,3.43
2019-03-25T04:58:33.804Z,2.98
2019-03-25T05:01:02.244Z,1.80
2019-03-25T05:03:30.645Z,2.65
2019-03-25T05:05:59.087Z,3.35
2019-03-25T05:08:27.499Z,2.20
2019-03-25T05:10:55.931Z,2.37
2019-03-25T05:13:24.345Z,3.57
2019-03-25T05:15:52.785Z,2.37
2019-03-25T05:18:21.188Z,2.40
2019-03-25T05:20:49.595Z,3.20
2019-03-25T05:23:18.083Z,1.90
2019-03-25T05:25:46.487Z,2.67
2019-03-25T05:28:14.908Z,3.23
2019-03-25T05:30:43.336Z,1.93
2019-03-25T05:33:11.781Z,4.67
2019-03-25T05:35:40.225Z,2.63
2019-03-25T05:38:08.647Z,3.27
2019-03-25T05:40:37.066Z,2.80
2019-03-25T05:43:05.493Z,2.13
2019-03-25T05:45:33.917Z,2.70
2019-03-25T05:48:02.349Z,2.87
2019-03-25T05:50:30.822Z,2.73
2019-03-25T05:52:59.228Z,3.90
2019-03-25T05:55:27.667Z,2.42
2019-03-25T05:57:56.085Z,3.07
2019-03-25T06:00:26.148Z,2.10
2019-03-25T06:02:55.032Z,2.03
2019-03-25T06:05:23.480Z,2.05
2019-03-25T06:07:51.892Z,1.70
2019-03-25T06:10:20.324Z,2.27
2019-03-25T06:12:48.809Z,3.12
2019-03-25T06:15:17.782Z,1.97
2019-03-25T06:17:46.222Z,2.77
2019-03-25T06:20:14.884Z,1.97
2019-03-25T06:22:43.319Z,2.25
2019-03-25T06:25:11.980Z,2.27
2019-03-25T06:27:40.374Z,1.70
2019-03-25T06:30:10.452Z,1.92
2019-03-25T06:32:38.879Z,2.30
2019-03-25T06:35:08.972Z,2.87
2019-03-25T06:37:37.548Z,2.42
2019-03-25T06:40:09.242Z,1.87
2019-03-25T06:42:37.676Z,1.60
2019-03-25T06:45:08.530Z,2.25
2019-03-25T06:47:36.964Z,3.00
2019-03-25T06:50:08.005Z,1.92
2019-03-25T06:52:36.415Z,2.30
2019-03-25T06:55:06.400Z,1.50
2019-03-25T06:57:34.906Z,2.22
2019-03-25T07:00:05.326Z,1.15
2019-03-25T07:02:33.782Z,1.67
2019-03-25T07:05:02.228Z,2.33
2019-03-25T07:07:30.660Z,2.73
2019-03-25T07:09:59.076Z,2.63
2019-03-25T07:12:27.658Z,2.17
2019-03-25T07:14:56.240Z,2.37
2019-03-25T07:17:24.650Z,2.42
2019-03-25T07:19:53.108Z,1.90
2019-03-25T07:22:21.511Z,3.05
2019-03-25T07:24:50.014Z,2.33
2019-03-25T07:27:18.347Z,2.75
2019-03-25T07:29:46.792Z,2.22
2019-03-25T07:32:15.220Z,2.10
2019-03-25T07:34:43.654Z,1.85
2019-03-25T07:37:12.113Z,1.77
2019-03-25T07:39:40.518Z,2.33
2019-03-25T07:42:08.936Z,1.98
2019-03-25T07:44:37.370Z,2.62
2019-03-25T07:47:05.855Z,2.27
2019-03-25T07:49:34.304Z,2.05
2019-03-25T07:52:02.719Z,2.08
2019-03-25T07:54:31.142Z,1.77
2019-03-25T07:56:59.579Z,2.27
2019-03-25T07:59:28.037Z,2.98
2019-03-25T08:01:56.445Z,2.58
2019-03-25T08:04:24.838Z,1.82
2019-03-25T08:06:53.285Z,1.75
2019-03-25T08:09:21.723Z,2.60
2019-03-25T08:11:50.137Z,1.80
2019-03-25T08:14:18.547Z,2.77
2019-03-25T08:16:47.010Z,2.37
2019-03-25T08:19:15.454Z,2.08
2019-03-25T08:21:43.866Z,3.22
2019-03-25T08:24:12.417Z,4.42
2019-03-25T08:26:42.888Z,2.25
2019-03-25T08:29:11.444Z,2.55
2019-03-25T08:31:39.846Z,1.67
2019-03-25T08:34:08.281Z,2.30
2019-03-25T08:36:36.702Z,2.25
2019-03-25T08:39:06.577Z,2.98
2019-03-25T08:41:35.080Z,3.42
2019-03-25T08:44:03.522Z,3.52
2019-03-25T08:46:31.986Z,2.60
2019-03-25T08:49:00.426Z,2.10
2019-03-25T08:51:28.861Z,1.92
2019-03-25T08:53:57.281Z,1.60
2019-03-25T08:56:25.685Z,1.82
2019-03-25T08:58:54.125Z,2.08
2019-03-25T09:01:22.703Z,2.12
2019-03-25T09:03:51.131Z,2.40
2019-03-25T09:06:19.544Z,1.82
2019-03-25T09:08:47.982Z,3.08
2019-03-25T09:11:16.395Z,3.67
2019-03-25T09:13:44.825Z,1.77
2019-03-25T09:16:13.219Z,2.10
2019-03-25T09:18:41.623Z,2.30
2019-03-25T09:21:10.065Z,2.25
2019-03-25T09:23:38.585Z,2.85
2019-03-25T09:26:07.004Z,3.10
2019-03-25T09:28:35.403Z,2.65
2019-03-25T09:31:09.994Z,3.05
2019-03-25T09:33:38.473Z,2.25
2019-03-25T09:36:07.096Z,1.52
2019-03-25T09:38:35.572Z,2.95
2019-03-25T09:41:04.085Z,2.22
2019-03-25T09:43:32.534Z,2.58
2019-03-25T09:46:01.036Z,2.83
2019-03-25T09:48:29.467Z,1.92
2019-03-25T09:50:57.887Z,2.75
2019-03-25T09:53:26.459Z,2.22
2019-03-25T09:55:54.828Z,2.42
2019-03-25T09:58:23.240Z,2.17
2019-03-25T10:00:52.262Z,3.22
2019-03-25T10:03:20.756Z,1.47
2019-03-25T10:05:49.550Z,2.55
2019-03-25T10:08:17.960Z,3.20
2019-03-25T10:10:46.402Z,2.33
2019-03-25T10:13:14.814Z,1.80
2019-03-25T10:15:43.236Z,3.02
2019-03-25T10:18:11.672Z,1.95
2019-03-25T10:20:40.071Z,2.17
2019-03-25T10:23:08.746Z,2.52
2019-03-25T10:25:37.164Z,2.10
2019-03-25T10:28:05.622Z,1.70
2019-03-25T10:30:34.067Z,2.52
2019-03-25T10:33:02.550Z,2.92
2019-03-25T10:35:30.997Z,2.05
2019-03-25T10:37:59.396Z,2.42
2019-03-25T10:40:27.806Z,3.22
2019-03-25T10:42:56.227Z,2.77
2019-03-25T10:45:24.644Z,2.80
2019-03-25T10:47:53.066Z,2.70
2019-03-25T10:50:21.480Z,3.00
2019-03-25T10:52:49.910Z,2.85
2019-03-25T10:55:18.350Z,2.37
2019-03-25T10:57:46.750Z,2.33
2019-03-25T11:00:16.024Z,2.55
2019-03-25T11:02:44.621Z,1.30
2019-03-25T11:05:14.211Z,1.92
2019-03-25T11:10:11.507Z,2.40
2019-03-25T11:12:39.958Z,3.22
2019-03-25T11:15:09.698Z,3.35
2019-03-25T11:17:38.326Z,1.87
2019-03-25T11:20:08.590Z,2.67
2019-03-25T11:22:37.080Z,1.42
2019-03-25T11:25:07.219Z,2.12
2019-03-25T11:27:35.720Z,2.50
2019-03-25T11:30:06.653Z,2.98
2019-03-25T11:32:35.084Z,2.40
2019-03-25T11:35:05.722Z,2.30
2019-03-25T11:37:34.150Z,2.33
2019-03-25T11:40:02.957Z,3.22
2019-03-25T11:42:31.450Z,3.02
2019-03-25T11:44:59.820Z,7.75
2019-03-25T11:47:28.256Z,6.72
2019-03-25T11:49:56.684Z,3.22
2019-03-25T11:52:25.188Z,3.45
2019-03-25T11:54:53.619Z,8.73
2019-03-25T11:57:22.053Z,4.20
2019-03-25T11:59:50.490Z,14.10
2019-03-25T12:02:19.050Z,14.90
2019-03-25T12:04:47.493Z,17.32
2019-03-25T12:07:15.923Z,19.02
2019-03-25T12:09:44.363Z,31.65
2019-03-25T12:12:12.787Z,17.85
2019-03-25T12:14:41.211Z,9.58
2019-03-25T12:17:09.651Z,12.68
2019-03-25T12:19:38.068Z,11.68
2019-03-25T12:22:06.516Z,10.30
2019-03-25T12:24:34.946Z,17.82
2019-03-25T12:27:03.436Z,16.20
2019-03-25T12:29:31.865Z,10.08
2019-03-25T12:32:00.301Z,12.53
2019-03-25T12:34:28.861Z,16.97
2019-03-25T12:36:57.231Z,12.88
2019-03-25T12:39:25.664Z,12.53
2019-03-25T12:41:54.135Z,12.15
2019-03-25T12:44:22.562Z,6.25
2019-03-25T12:46:50.982Z,8.48
2019-03-25T12:49:19.438Z,10.80
2019-03-25T12:51:48.538Z,14.73
2019-03-25T12:54:17.168Z,9.13
2019-03-25T12:56:45.591Z,7.67
2019-03-25T12:59:14.020Z,10.15
2019-03-25T13:01:52.508Z,8.75
2019-03-25T13:04:12.610Z,7.25
2019-03-25T13:06:41.046Z,8.00
2019-03-25T13:09:09.567Z,7.30
2019-03-25T13:11:38.005Z,10.85
2019-03-25T13:14:06.521Z,6.03
2019-03-25T13:16:35.047Z,6.95
2019-03-25T13:19:03.484Z,6.55
2019-03-25T13:21:32.032Z,6.47
2019-03-25T13:24:00.447Z,8.10
2019-03-25T13:26:28.880Z,10.38
2019-03-25T13:29:01.984Z,7.78
2019-03-25T13:31:27.477Z,7.08
2019-03-25T13:33:55.948Z,6.92
2019-03-25T13:36:24.344Z,6.83
2019-03-25T13:38:52.783Z,5.95
2019-03-25T13:41:21.205Z,6.58
2019-03-25T13:43:49.657Z,7.00
2019-03-25T13:46:18.090Z,5.75
2019-03-25T13:48:46.507Z,4.30
2019-03-25T13:51:14.938Z,7.65
2019-03-25T13:53:43.369Z,5.00
2019-03-25T13:56:11.832Z,4.60
2019-03-25T13:58:40.234Z,5.72
2019-03-25T14:01:08.662Z,4.42
2019-03-25T14:03:37.184Z,4.65
2019-03-25T14:06:05.903Z,3.52
2019-03-25T14:08:34.325Z,5.45
2019-03-25T14:11:02.754Z,3.77
2019-03-25T14:13:31.177Z,3.70
2019-03-25T14:15:59.893Z,8.63
2019-03-25T14:18:28.300Z,4.72
2019-03-25T14:20:56.775Z,3.35
2019-03-25T14:23:25.145Z,2.83
2019-03-25T14:25:53.585Z,5.03
2019-03-25T14:28:22.016Z,4.33
2019-03-25T14:30:50.531Z,5.45
2019-03-25T14:33:18.967Z,3.25
2019-03-25T14:35:47.380Z,4.75
2019-03-25T14:38:15.820Z,4.90
2019-03-25T14:40:44.242Z,3.77
2019-03-25T14:43:12.656Z,2.47
2019-03-25T14:45:41.112Z,8.63
2019-03-25T14:48:09.542Z,1.82
2019-03-25T14:50:38.000Z,4.08
2019-03-25T14:53:06.491Z,2.25
2019-03-25T14:55:34.928Z,3.42
2019-03-25T14:58:03.330Z,2.77
2019-03-25T15:00:31.788Z,2.12
2019-03-25T15:03:00.195Z,4.45
2019-03-25T15:05:28.634Z,3.98
2019-03-25T15:07:57.051Z,1.95
2019-03-25T15:10:25.498Z,2.45
2019-03-25T15:12:53.906Z,2.85
2019-03-25T15:15:22.470Z,1.35
2019-03-25T15:17:50.905Z,3.75
2019-03-25T15:20:19.314Z,2.10
2019-03-25T15:22:47.770Z,1.80
2019-03-25T15:25:16.410Z,2.10
2019-03-25T15:27:44.863Z,15.38
2019-03-25T15:30:14.213Z,11.80
2019-03-25T15:32:43.192Z,4.80
2019-03-25T15:35:11.934Z,5.78
2019-03-25T15:37:40.399Z,4.53
2019-03-25T15:40:13.509Z,2.27
2019-03-25T15:42:42.311Z,3.27
2019-03-25T15:45:11.270Z,4.00
2019-03-25T15:47:40.478Z,5.40
2019-03-25T15:50:09.924Z,6.70
2019-03-25T15:52:39.165Z,2.22
2019-03-25T15:55:08.032Z,2.98
2019-03-25T15:57:36.443Z,2.40
2019-03-25T16:00:07.941Z,2.05
2019-03-25T16:02:36.372Z,2.60
2019-03-25T16:05:06.225Z,6.30
2019-03-25T16:07:34.822Z,2.87
2019-03-25T16:10:04.770Z,4.47
2019-03-25T16:12:33.216Z,1.75
2019-03-25T16:15:01.650Z,2.40
2019-03-25T16:17:30.061Z,1.57
2019-03-25T16:19:58.506Z,3.20
2019-03-25T16:22:26.912Z,4.00
2019-03-25T16:24:55.433Z,3.37
2019-03-25T16:27:23.869Z,3.80
2019-03-25T16:29:52.308Z,1.90
2019-03-25T16:32:20.746Z,1.80
2019-03-25T16:34:49.173Z,4.22
2019-03-25T16:37:17.592Z,2.60
2019-03-25T16:39:46.038Z,4.72
2019-03-25T16:42:14.459Z,2.33
2019-03-25T16:44:42.908Z,1.92
2019-03-25T16:47:11.359Z,1.12
2019-03-25T16:49:39.777Z,3.47
2019-03-25T16:52:08.275Z,1.47
2019-03-25T16:54:36.735Z,3.60
2019-03-25T16:57:05.227Z,1.70
2019-03-25T16:59:33.671Z,1.52
2019-03-25T17:02:02.125Z,1.20
2019-03-25T17:04:30.563Z,4.08
2019-03-25T17:06:59.001Z,1.62
2019-03-25T17:09:27.409Z,1.15
2019-03-25T17:11:55.835Z,1.90
2019-03-25T17:14:24.283Z,2.27
2019-03-25T17:16:52.703Z,1.02
2019-03-25T17:19:21.188Z,3.60
2019-03-25T17:21:57.728Z,1.47
2019-03-25T17:24:19.735Z,1.15
2019-03-25T17:26:48.193Z,0.90
2019-03-25T17:29:16.597Z,1.75
2019-03-25T17:31:45.031Z,2.20
2019-03-25T17:34:13.462Z,1.32
2019-03-25T17:36:41.881Z,2.47
2019-03-25T17:39:10.298Z,1.40
2019-03-25T17:41:38.726Z,1.45
2019-03-25T17:44:07.141Z,1.00
2019-03-25T17:46:35.651Z,2.42
2019-03-25T17:49:04.065Z,3.45
2019-03-25T17:51:32.487Z,2.30
2019-03-25T17:54:00.911Z,1.65
2019-03-25T17:56:29.314Z,0.50
2019-03-25T17:58:57.749Z,1.30
2019-03-25T18:01:32.293Z,1.12
2019-03-25T18:03:57.616Z,1.45
2019-03-25T18:06:26.181Z,1.77
2019-03-25T18:08:54.739Z,4.08
2019-03-25T18:11:23.140Z,1.45
2019-03-25T18:13:51.610Z,1.22
2019-03-25T18:16:20.026Z,1.60
2019-03-25T18:18:48.437Z,1.62
2019-03-25T18:21:16.881Z,1.22
2019-03-25T18:23:45.290Z,1.57
2019-03-25T18:26:13.740Z,1.70
2019-03-25T18:28:42.203Z,2.47
2019-03-25T18:31:10.728Z,1.12
2019-03-25T18:33:39.167Z,1.98
2019-03-25T18:36:07.577Z,0.90
2019-03-25T18:38:36.021Z,1.02
2019-03-25T18:41:04.436Z,1.47
2019-03-25T18:43:32.940Z,1.92
2019-03-25T18:46:01.356Z,1.42
2019-03-25T18:48:29.873Z,1.17
2019-03-25T18:50:58.291Z,1.77
2019-03-25T18:53:26.693Z,1.37
2019-03-25T18:55:55.336Z,2.58
2019-03-25T18:58:23.835Z,1.25
2019-03-25T19:00:52.263Z,1.17
2019-03-25T19:03:20.843Z,1.57
2019-03-25T19:05:49.614Z,0.93
2019-03-25T19:08:19.098Z,1.05
2019-03-25T19:10:47.510Z,1.67
2019-03-25T19:13:15.939Z,0.42
2019-03-25T19:15:44.402Z,0.95
2019-03-25T19:18:12.821Z,0.60
2019-03-25T19:20:41.268Z,1.22
2019-03-25T19:23:09.685Z,0.73
2019-03-25T19:25:38.142Z,0.80
2019-03-25T19:28:06.644Z,1.67
2019-03-25T19:30:35.061Z,0.53
2019-03-25T19:33:03.577Z,1.05
2019-03-25T19:35:31.980Z,1.45
2019-03-25T19:38:00.491Z,0.82
2019-03-25T19:40:28.946Z,0.68
2019-03-25T19:42:57.436Z,1.23
2019-03-25T19:45:25.850Z,1.05
2019-03-25T19:47:54.250Z,0.88
2019-03-25T19:50:22.864Z,1.37
2019-03-25T19:52:51.270Z,0.80
2019-03-25T19:55:19.706Z,0.62
2019-03-25T19:57:48.142Z,0.63
2019-03-25T20:00:19.644Z,1.60
2019-03-25T20:02:48.035Z,1.50
2019-03-25T20:05:16.457Z,1.30
2019-03-25T20:07:44.884Z,0.87
2019-03-25T20:10:28.080Z,1.27
2019-03-25T20:12:57.017Z,1.10
2019-03-25T20:15:25.394Z,0.80
2019-03-25T20:17:53.843Z,1.37
2019-03-25T20:20:22.255Z,1.20
2019-03-25T20:22:50.688Z,1.50
2019-03-25T20:25:19.148Z,0.87
2019-03-25T20:27:47.522Z,1.15
2019-03-25T20:30:16.133Z,0.90
2019-03-25T20:32:44.687Z,0.67
2019-03-25T20:35:13.119Z,0.53
2019-03-25T20:37:41.604Z,1.20
2019-03-25T20:40:10.705Z,1.50
2019-03-25T20:42:39.093Z,1.47
2019-03-25T20:45:08.569Z,0.93
2019-03-25T20:47:37.015Z,0.70
2019-03-25T20:50:08.665Z,1.47
2019-03-25T20:52:37.096Z,2.90
2019-03-25T20:55:07.839Z,0.63
2019-03-25T20:57:36.267Z,1.97
2019-03-25T21:00:07.174Z,0.93
2019-03-25T21:02:44.946Z,1.90
2019-03-25T21:05:07.012Z,0.87
2019-03-25T21:07:35.402Z,1.77
2019-03-25T21:10:06.372Z,0.75
2019-03-25T21:12:34.845Z,0.80
2019-03-25T21:15:04.357Z,1.53
2019-03-25T21:17:32.782Z,0.90
2019-03-25T21:20:01.267Z,2.15
2019-03-25T21:22:29.771Z,1.60
2019-03-25T21:24:58.204Z,0.50
2019-03-25T21:27:26.641Z,0.73
2019-03-25T21:29:55.061Z,1.45
2019-03-25T21:32:23.588Z,1.30
2019-03-25T21:34:52.091Z,1.73
2019-03-25T21:37:20.468Z,0.93
2019-03-25T21:39:49.032Z,1.37
2019-03-25T21:42:17.525Z,1.93
2019-03-25T21:44:46.049Z,0.67
2019-03-25T21:47:14.470Z,0.95
2019-03-25T21:49:42.899Z,1.17
2019-03-25T21:52:11.363Z,0.73
2019-03-25T21:54:39.834Z,1.07
2019-03-25T21:57:08.232Z,1.35
2019-03-25T21:59:36.666Z,2.33
2019-03-25T22:02:05.075Z,1.15
2019-03-25T22:04:33.513Z,1.97
2019-03-25T22:07:01.945Z,0.45
2019-03-25T22:09:30.355Z,1.40
2019-03-25T22:11:58.776Z,1.47
2019-03-25T22:14:27.203Z,1.20
2019-03-25T22:16:55.643Z,1.52
2019-03-25T22:19:24.096Z,1.20
2019-03-25T22:21:52.501Z,1.40
2019-03-25T22:24:20.946Z,1.00
2019-03-25T22:26:49.373Z,0.80
2019-03-25T22:29:17.889Z,0.90
2019-03-25T22:31:46.325Z,1.27
2019-03-25T22:34:14.769Z,1.25
2019-03-25T22:36:43.193Z,1.00
2019-03-25T22:39:11.620Z,1.37
2019-03-25T22:41:40.213Z,1.37
2019-03-25T22:44:08.654Z,1.03
2019-03-25T22:46:37.049Z,1.03
2019-03-25T22:49:05.560Z,1.10
2019-03-25T22:51:33.957Z,1.80
2019-03-25T22:54:02.396Z,1.07
2019-03-25T22:56:30.839Z,1.20
2019-03-25T22:58:59.247Z,1.33
2019-03-25T23:01:27.901Z,0.93
2019-03-25T23:03:56.297Z,1.63
2019-03-25T23:06:24.737Z,1.37
2019-03-25T23:08:53.147Z,1.83
2019-03-25T23:11:21.585Z,0.83
2019-03-25T23:13:50.066Z,0.73
2019-03-25T23:16:18.463Z,1.60
2019-03-25T23:18:46.874Z,1.17
2019-03-25T23:21:15.310Z,0.70
2019-03-25T23:23:43.763Z,0.63
2019-03-25T23:26:12.163Z,2.30
2019-03-25T23:28:40.590Z,1.07
2019-03-25T23:31:09.071Z,1.63
2019-03-25T23:33:37.508Z,1.00
2019-03-25T23:36:05.906Z,1.43
2019-03-25T23:38:34.349Z,1.10
2019-03-25T23:41:02.802Z,1.57
2019-03-25T23:43:31.233Z,1.30
2019-03-25T23:45:59.644Z,0.70
2019-03-25T23:48:28.082Z,2.03
2019-03-25T23:50:56.490Z,1.23
2019-03-25T23:53:24.918Z,1.33
2019-03-25T23:55:53.359Z,0.50
2019-03-25T23:58:21.763Z,1.67
